Time;durP1;ratioP1;P1;durP2;ratioP2;P2;SDS_P1;SDS_P2;PMS_P1;PMS_P2;Temp;Humidity;BMP_temperature;BMP_pressure;BME280_temperature;BME280_humidity;BME280_pressure;Samples;Min_cycle;Max_cycle;Signal;HPM_P1;HPM_P2
2023/05/03 00:00:19;;;;;;;0.00;0.00;;;9.60;99.90;;;;;;5090243;28;20172;-59
2023/05/03 00:02:45;;;;;;;0.05;0.05;;;9.50;99.90;;;;;;5090711;28;20179;-60
2023/05/03 00:05:11;;;;;;;0.10;0.10;;;9.50;99.90;;;;;;5090753;28;20168;-59
2023/05/03 00:07:39;;;;;;;0.00;0.00;;;9.50;99.90;;;;;;5090502;28;20198;-59
2023/05/03 00:10:05;;;;;;;0.00;0.00;;;9.50;99.90;;;;;;5090189;28;20690;-60
2023/05/03 00:12:31;;;;;;;0.20;0.20;;;9.50;99.90;;;;;;5089496;28;20543;-59
2023/05/03 00:14:56;;;;;;;0.00;0.00;;;9.40;99.90;;;;;;5090489;28;20172;-59
2023/05/03 00:17:22;;;;;;;0.10;0.10;;;9.30;99.90;;;;;;5089299;28;20183;-59
2023/05/03 00:19:47;;;;;;;0.05;0.05;;;9.30;99.90;;;;;;5090396;28;20183;-59
2023/05/03 00:22:13;;;;;;;0.00;0.00;;;9.20;99.90;;;;;;5089985;28;20186;-59
2023/05/03 00:24:38;;;;;;;0.00;0.00;;;9.20;99.90;;;;;;5089947;28;20216;-59
2023/05/03 00:27:05;;;;;;;0.00;0.00;;;9.10;99.90;;;;;;5090420;28;20187;-59
2023/05/03 00:29:31;;;;;;;0.00;0.00;;;9.10;99.90;;;;;;5089692;28;20172;-59
2023/05/03 00:31:56;;;;;;;0.00;0.00;;;9.00;99.90;;;;;;5090074;28;20261;-59
2023/05/03 00:34:22;;;;;;;0.05;0.05;;;9.00;99.90;;;;;;5089975;28;20599;-59
2023/05/03 00:36:47;;;;;;;0.55;0.55;;;8.90;99.90;;;;;;5089620;28;20176;-59
2023/05/03 00:39:13;;;;;;;0.20;0.20;;;8.90;99.90;;;;;;5089909;28;20255;-59
2023/05/03 00:41:38;;;;;;;0.00;0.00;;;8.90;99.90;;;;;;5090342;28;20596;-59
2023/05/03 00:44:04;;;;;;;0.00;0.00;;;8.90;99.90;;;;;;5088206;28;20722;-59
2023/05/03 00:46:30;;;;;;;0.00;0.00;;;8.80;99.90;;;;;;5089163;28;20179;-59
2023/05/03 00:48:56;;;;;;;0.00;0.00;;;8.80;99.90;;;;;;5089602;28;20175;-59
2023/05/03 00:51:22;;;;;;;0.03;0.03;;;8.80;99.90;;;;;;5088361;28;20245;-59
2023/05/03 00:53:47;;;;;;;0.08;0.08;;;8.70;99.90;;;;;;5089885;28;20183;-59
2023/05/03 00:56:18;;;;;;;0.00;0.00;;;8.70;99.90;;;;;;5089845;28;20172;-59
2023/05/03 00:58:43;;;;;;;0.00;0.00;;;8.50;99.90;;;;;;5090042;28;20191;-59
2023/05/03 01:01:09;;;;;;;0.00;0.00;;;8.70;99.90;;;;;;5090431;28;20546;-60
2023/05/03 01:03:40;;;;;;;0.00;0.00;;;8.70;99.90;;;;;;5090021;28;20305;-59
2023/05/03 01:06:17;;;;;;;0.00;0.00;;;8.70;99.90;;;;;;5089923;28;20244;-59
2023/05/03 01:08:46;;;;;;;0.00;0.00;;;8.70;99.90;;;;;;5090852;28;20172;-59
2023/05/03 01:11:40;;;;;;;0.00;0.00;;;8.70;99.90;;;;;;5093878;28;20212;-59
2023/05/03 01:14:15;;;;;;;0.00;0.00;;;8.70;99.90;;;;;;5089913;28;20190;-59
2023/05/03 01:16:48;;;;;;;0.03;0.03;;;8.70;99.90;;;;;;5093585;28;20184;-59
2023/05/03 01:19:43;;;;;;;0.00;0.00;;;8.70;99.90;;;;;;5100732;28;20298;-59
2023/05/03 01:22:36;;;;;;;0.00;0.00;;;8.70;99.90;;;;;;5088927;28;20195;-59
2023/05/03 01:25:08;;;;;;;0.00;0.00;;;8.60;99.90;;;;;;5093936;28;20623;-59
2023/05/03 01:27:35;;;;;;;0.00;0.00;;;8.60;99.90;;;;;;5093785;28;20224;-59
2023/05/03 01:30:04;;;;;;;0.00;0.00;;;8.60;99.90;;;;;;5094239;28;20223;-59
2023/05/03 01:32:41;;;;;;;0.03;0.03;;;8.50;99.90;;;;;;5093929;28;20188;-59
2023/05/03 01:35:25;;;;;;;0.00;0.00;;;8.50;99.90;;;;;;5093805;28;20184;-60
2023/05/03 01:37:51;;;;;;;0.00;0.00;;;8.50;99.90;;;;;;5093225;28;20194;-59
2023/05/03 01:40:19;;;;;;;0.00;0.00;;;8.50;99.90;;;;;;5093616;28;20650;-60
2023/05/03 01:42:45;;;;;;;0.03;0.03;;;8.40;99.90;;;;;;5092765;28;20643;-59
2023/05/03 01:45:11;;;;;;;0.00;0.00;;;8.40;99.90;;;;;;5093594;28;20210;-59
2023/05/03 01:47:37;;;;;;;0.00;0.00;;;8.30;99.90;;;;;;5092399;28;20651;-59
2023/05/03 01:50:02;;;;;;;0.00;0.00;;;8.30;99.90;;;;;;5093255;28;20204;-59
2023/05/03 01:52:29;;;;;;;0.00;0.00;;;8.20;99.90;;;;;;5093083;28;20188;-59
2023/05/03 01:54:55;;;;;;;0.00;0.00;;;8.20;99.90;;;;;;5093491;28;20219;-59
2023/05/03 01:57:21;;;;;;;0.13;0.13;;;8.20;99.90;;;;;;5092356;28;20187;-59
2023/05/03 01:59:46;;;;;;;0.00;0.00;;;8.20;99.90;;;;;;5092856;28;20180;-59
2023/05/03 02:02:12;;;;;;;0.00;0.00;;;8.10;99.90;;;;;;5092428;28;20274;-59
2023/05/03 02:04:37;;;;;;;0.00;0.00;;;8.10;99.90;;;;;;5093089;28;20183;-59
2023/05/03 02:07:03;;;;;;;0.03;0.03;;;8.10;99.90;;;;;;5092701;28;20179;-59
2023/05/03 02:09:28;;;;;;;0.10;0.10;;;8.10;99.90;;;;;;5092632;28;20410;-59
2023/05/03 02:11:54;;;;;;;0.35;0.25;;;8.10;99.90;;;;;;5092544;28;20216;-60
2023/05/03 02:14:19;;;;;;;0.30;0.22;;;8.10;99.90;;;;;;5091944;28;20173;-59
2023/05/03 02:16:45;;;;;;;0.00;0.00;;;8.10;99.90;;;;;;5092840;28;20683;-59
2023/05/03 02:19:11;;;;;;;0.00;0.00;;;8.10;99.90;;;;;;5091999;28;20642;-59
2023/05/03 02:21:36;;;;;;;0.00;0.00;;;8.00;99.90;;;;;;5091681;28;20666;-59
2023/05/03 02:24:02;;;;;;;0.00;0.00;;;8.00;99.90;;;;;;5091903;28;20222;-59
2023/05/03 02:26:28;;;;;;;0.00;0.00;;;8.00;99.90;;;;;;5092861;28;20180;-59
2023/05/03 02:28:55;;;;;;;0.00;0.00;;;8.00;99.90;;;;;;5092641;28;20184;-59
2023/05/03 02:31:21;;;;;;;0.00;0.00;;;8.00;99.90;;;;;;5091773;28;20265;-59
2023/05/03 02:33:46;;;;;;;0.40;0.40;;;7.90;99.90;;;;;;5091932;28;20179;-59
2023/05/03 02:36:12;;;;;;;0.00;0.00;;;7.90;99.90;;;;;;5091753;28;20711;-59
2023/05/03 02:38:37;;;;;;;0.00;0.00;;;7.90;99.90;;;;;;5092167;28;20172;-59
2023/05/03 02:41:03;;;;;;;0.00;0.00;;;7.90;99.90;;;;;;5092372;28;20190;-59
2023/05/03 02:43:28;;;;;;;0.00;0.00;;;7.90;99.90;;;;;;5092101;28;20176;-59
2023/05/03 02:45:54;;;;;;;0.00;0.00;;;8.00;99.90;;;;;;5091928;28;20237;-59
2023/05/03 02:48:20;;;;;;;0.00;0.00;;;8.00;99.90;;;;;;5090813;28;20176;-59
2023/05/03 02:50:45;;;;;;;0.00;0.00;;;7.90;99.90;;;;;;5091454;28;20208;-59
2023/05/03 02:53:11;;;;;;;0.00;0.00;;;7.90;99.90;;;;;;5092199;28;20176;-59
2023/05/03 02:55:37;;;;;;;0.03;0.03;;;7.80;99.90;;;;;;5091587;28;20260;-59
2023/05/03 02:58:02;;;;;;;0.00;0.00;;;7.80;99.90;;;;;;5091608;28;20180;-59
2023/05/03 03:00:28;;;;;;;0.00;0.00;;;7.80;99.90;;;;;;5092309;28;20187;-59
2023/05/03 03:02:53;;;;;;;0.00;0.00;;;7.80;99.90;;;;;;5089704;28;20191;-59
2023/05/03 03:05:19;;;;;;;0.00;0.00;;;7.80;99.90;;;;;;5090885;28;20222;-59
2023/05/03 03:07:44;;;;;;;0.10;0.10;;;7.70;99.90;;;;;;5091251;28;20180;-59
2023/05/03 03:10:10;;;;;;;0.00;0.00;;;7.70;99.90;;;;;;5091553;28;20249;-59
2023/05/03 03:12:36;;;;;;;0.00;0.00;;;7.70;99.90;;;;;;5091403;28;20180;-59
2023/05/03 03:15:02;;;;;;;0.10;0.10;;;7.70;99.90;;;;;;5091989;28;20177;-59
2023/05/03 03:17:28;;;;;;;0.00;0.00;;;7.70;99.90;;;;;;5091745;28;20191;-59
2023/05/03 03:19:54;;;;;;;0.00;0.00;;;7.70;99.90;;;;;;5091259;28;20203;-59
2023/05/03 03:22:19;;;;;;;0.00;0.00;;;7.70;99.90;;;;;;5091314;28;20172;-59
2023/05/03 03:24:45;;;;;;;0.00;0.00;;;7.70;99.90;;;;;;5090758;28;20586;-59
2023/05/03 03:27:10;;;;;;;0.00;0.00;;;7.60;99.90;;;;;;5090333;28;20184;-59
2023/05/03 03:29:36;;;;;;;0.00;0.00;;;7.70;99.90;;;;;;5091718;28;20191;-59
2023/05/03 03:32:01;;;;;;;0.00;0.00;;;7.60;99.90;;;;;;5091481;28;20312;-59
2023/05/03 03:34:27;;;;;;;0.00;0.00;;;7.60;99.90;;;;;;5091527;28;20595;-58
2023/05/03 03:36:52;;;;;;;0.00;0.00;;;7.60;99.90;;;;;;5091057;28;20957;-58
2023/05/03 03:39:18;;;;;;;0.00;0.00;;;7.60;99.90;;;;;;5091453;28;20516;-58
2023/05/03 03:41:44;;;;;;;0.00;0.00;;;7.60;99.90;;;;;;5091261;28;20214;-60
2023/05/03 03:44:09;;;;;;;0.22;0.22;;;7.60;99.90;;;;;;5091468;28;20180;-58
2023/05/03 03:46:35;;;;;;;0.00;0.00;;;7.50;99.90;;;;;;5091787;28;20525;-59
2023/05/03 03:49:00;;;;;;;0.00;0.00;;;7.50;99.90;;;;;;5091686;28;20180;-58
2023/05/03 03:51:26;;;;;;;0.00;0.00;;;7.50;99.90;;;;;;5091733;28;20211;-59
2023/05/03 03:53:52;;;;;;;0.00;0.00;;;7.50;99.90;;;;;;5091862;28;20192;-59
2023/05/03 03:56:17;;;;;;;0.20;0.20;;;7.50;99.90;;;;;;5091552;28;20170;-59
2023/05/03 03:58:43;;;;;;;0.05;0.05;;;7.50;99.90;;;;;;5091222;28;20239;-61
2023/05/03 04:01:08;;;;;;;0.00;0.00;;;7.50;99.90;;;;;;5091030;28;20233;-59
2023/05/03 04:03:34;;;;;;;0.00;0.00;;;7.50;99.90;;;;;;5091126;28;20564;-60
2023/05/03 04:05:59;;;;;;;0.00;0.00;;;7.50;99.90;;;;;;5090648;28;20184;-61
2023/05/03 04:08:25;;;;;;;0.05;0.05;;;7.50;99.90;;;;;;5090831;28;20255;-60
2023/05/03 04:10:50;;;;;;;0.00;0.00;;;7.50;99.90;;;;;;5091010;28;20667;-60
2023/05/03 04:13:16;;;;;;;0.00;0.00;;;7.50;99.90;;;;;;5090964;28;20168;-61
2023/05/03 04:15:42;;;;;;;0.00;0.00;;;7.60;99.90;;;;;;5091326;28;20295;-61
2023/05/03 04:18:07;;;;;;;0.00;0.00;;;7.60;99.90;;;;;;5091243;28;20177;-61
2023/05/03 04:20:33;;;;;;;0.00;0.00;;;7.60;99.90;;;;;;5090553;28;20172;-61
2023/05/03 04:22:59;;;;;;;0.00;0.00;;;7.60;99.90;;;;;;5089802;28;20192;-61
2023/05/03 04:25:25;;;;;;;0.00;0.00;;;7.60;99.90;;;;;;5091140;28;20221;-61
2023/05/03 04:27:51;;;;;;;0.00;0.00;;;7.60;99.90;;;;;;5090682;28;20235;-62
2023/05/03 04:30:16;;;;;;;0.00;0.00;;;7.60;99.90;;;;;;5090675;28;20696;-61
2023/05/03 04:32:42;;;;;;;0.00;0.00;;;7.60;99.90;;;;;;5090913;28;20559;-61
2023/05/03 04:35:09;;;;;;;0.00;0.00;;;7.60;99.90;;;;;;5090753;28;20305;-61
2023/05/03 04:37:35;;;;;;;0.00;0.00;;;7.60;99.90;;;;;;5090875;28;20182;-61
2023/05/03 04:40:06;;;;;;;0.00;0.00;;;7.60;99.90;;;;;;5090970;28;20176;-61
2023/05/03 04:42:32;;;;;;;0.05;0.05;;;7.70;99.90;;;;;;5085704;28;20176;-62
2023/05/03 04:44:57;;;;;;;0.00;0.00;;;7.70;99.90;;;;;;5070273;28;20560;-61
2023/05/03 04:47:24;;;;;;;0.00;0.00;;;7.70;99.90;;;;;;5070717;28;20203;-61
2023/05/03 04:49:50;;;;;;;0.00;0.00;;;7.80;99.90;;;;;;5070512;28;20659;-61
2023/05/03 04:52:15;;;;;;;0.00;0.00;;;7.90;99.90;;;;;;5070482;28;20196;-61
2023/05/03 04:54:41;;;;;;;0.00;0.00;;;8.00;99.90;;;;;;5070559;28;20180;-61
2023/05/03 04:57:09;;;;;;;0.00;0.00;;;8.10;99.90;;;;;;5070664;28;20665;-61
2023/05/03 04:59:34;;;;;;;0.00;0.00;;;8.40;99.90;;;;;;5070356;28;20200;-61
2023/05/03 05:02:00;;;;;;;0.00;0.00;;;8.70;99.90;;;;;;5070455;28;20247;-61
2023/05/03 05:04:25;;;;;;;0.10;0.10;;;8.90;99.90;;;;;;5086044;28;20177;-61
2023/05/03 05:06:52;;;;;;;0.00;0.00;;;9.30;99.90;;;;;;5070459;28;20207;-62
2023/05/03 05:09:26;;;;;;;0.00;0.00;;;9.60;99.90;;;;;;5070258;28;20551;-61
2023/05/03 05:11:52;;;;;;;0.00;0.00;;;10.00;99.90;;;;;;5070362;28;20232;-61
2023/05/03 05:14:18;;;;;;;0.00;0.00;;;10.30;99.90;;;;;;5070395;28;20184;-61
2023/05/03 05:16:43;;;;;;;0.00;0.00;;;10.50;99.90;;;;;;5070250;28;20679;-62
2023/05/03 05:19:09;;;;;;;0.03;0.03;;;10.80;99.90;;;;;;5070344;28;20636;-61
2023/05/03 05:21:35;;;;;;;0.00;0.00;;;11.10;99.90;;;;;;5070267;28;20169;-61
2023/05/03 05:24:00;;;;;;;0.00;0.00;;;11.30;99.90;;;;;;5070045;28;20224;-61
2023/05/03 05:26:26;;;;;;;0.00;0.00;;;11.60;99.90;;;;;;5070128;28;20181;-61
2023/05/03 05:28:52;;;;;;;0.00;0.00;;;11.90;99.90;;;;;;5070033;28;20184;-61
2023/05/03 05:31:18;;;;;;;0.00;0.00;;;12.10;99.90;;;;;;5070210;28;20707;-62
2023/05/03 05:33:43;;;;;;;0.00;0.00;;;12.40;99.90;;;;;;5070224;28;20580;-62
2023/05/03 05:36:09;;;;;;;0.00;0.00;;;12.60;99.90;;;;;;5077022;28;20180;-61
2023/05/03 05:38:35;;;;;;;0.35;0.32;;;12.80;99.90;;;;;;5069925;28;20284;-61
2023/05/03 05:41:01;;;;;;;0.00;0.00;;;12.90;99.90;;;;;;5070072;28;20235;-61
2023/05/03 05:43:26;;;;;;;0.00;0.00;;;12.90;99.90;;;;;;5082810;28;20180;-61
2023/05/03 05:45:52;;;;;;;0.00;0.00;;;13.10;99.90;;;;;;5090268;28;20184;-61
2023/05/03 05:48:17;;;;;;;0.00;0.00;;;13.30;99.90;;;;;;5090183;28;20172;-61
2023/05/03 05:50:43;;;;;;;0.00;0.00;;;13.30;99.40;;;;;;5090243;28;20227;-61
2023/05/03 05:53:09;;;;;;;0.00;0.00;;;13.40;99.80;;;;;;5090014;28;20180;-61
2023/05/03 05:55:35;;;;;;;0.00;0.00;;;13.80;99.40;;;;;;5090096;28;20172;-61
2023/05/03 05:58:00;;;;;;;0.00;0.00;;;14.10;99.00;;;;;;5093643;28;20267;-61
2023/05/03 06:00:26;;;;;;;0.10;0.10;;;14.30;98.10;;;;;;5093506;28;20302;-62
2023/05/03 06:02:51;;;;;;;0.10;0.10;;;14.50;97.80;;;;;;5093526;28;20229;-62
2023/05/03 06:05:17;;;;;;;0.00;0.00;;;14.90;97.30;;;;;;5093413;28;20611;-62
2023/05/03 06:07:42;;;;;;;0.00;0.00;;;15.20;96.30;;;;;;5093509;28;20643;-61
2023/05/03 06:10:08;;;;;;;0.00;0.00;;;15.30;95.90;;;;;;5093313;28;20222;-61
2023/05/03 06:12:35;;;;;;;0.00;0.00;;;15.70;95.60;;;;;;5093429;28;20180;-61
2023/05/03 06:15:01;;;;;;;0.00;0.00;;;15.80;94.40;;;;;;5093359;28;20172;-61
2023/05/03 06:17:27;;;;;;;0.00;0.00;;;16.00;94.00;;;;;;5093335;28;20722;-61
2023/05/03 06:19:52;;;;;;;0.10;0.10;;;16.30;93.40;;;;;;5093333;28;20259;-61
2023/05/03 06:22:18;;;;;;;0.00;0.00;;;16.50;92.50;;;;;;5093267;28;20301;-61
2023/05/03 06:24:43;;;;;;;0.00;0.00;;;16.40;92.10;;;;;;5093125;28;20709;-62
2023/05/03 06:27:09;;;;;;;0.00;0.00;;;16.40;91.90;;;;;;5093153;28;20670;-62
2023/05/03 06:29:34;;;;;;;0.00;0.00;;;16.50;91.60;;;;;;5093016;28;20165;-61
2023/05/03 06:32:00;;;;;;;0.13;0.13;;;16.80;91.70;;;;;;5093098;28;20276;-61
2023/05/03 06:34:26;;;;;;;0.00;0.00;;;17.20;91.30;;;;;;5093125;28;20579;-61
2023/05/03 06:36:51;;;;;;;0.00;0.00;;;17.70;91.00;;;;;;5080041;28;20226;-61
2023/05/03 06:39:17;;;;;;;0.00;0.00;;;18.30;88.50;;;;;;5072744;28;20254;-61
2023/05/03 06:41:43;;;;;;;0.00;0.00;;;18.60;85.60;;;;;;5072774;28;20204;-61
2023/05/03 06:44:09;;;;;;;0.00;0.00;;;18.70;84.20;;;;;;5090031;28;20184;-61
2023/05/03 06:46:34;;;;;;;0.00;0.00;;;18.90;82.60;;;;;;5092914;28;20173;-61
2023/05/03 06:49:00;;;;;;;0.00;0.00;;;19.10;81.60;;;;;;5092865;28;20643;-62
2023/05/03 06:51:27;;;;;;;0.00;0.00;;;19.10;80.90;;;;;;5092787;28;20572;-61
2023/05/03 06:54:05;;;;;;;0.00;0.00;;;19.10;80.20;;;;;;5093168;28;20200;-61
2023/05/03 06:56:31;;;;;;;0.00;0.00;;;19.10;80.70;;;;;;5093141;28;20225;-62
2023/05/03 06:58:56;;;;;;;0.00;0.00;;;19.50;80.30;;;;;;5093160;28;20184;-62
2023/05/03 07:01:22;;;;;;;0.00;0.00;;;19.80;78.60;;;;;;5093090;28;20221;-62
2023/05/03 07:03:47;;;;;;;0.00;0.00;;;20.40;78.10;;;;;;5093118;28;20180;-62
2023/05/03 07:06:14;;;;;;;0.00;0.00;;;20.90;75.90;;;;;;5091534;28;20179;-62
2023/05/03 07:08:39;;;;;;;0.00;0.00;;;21.20;74.30;;;;;;5092789;28;20176;-62
2023/05/03 07:11:05;;;;;;;0.00;0.00;;;21.60;73.10;;;;;;5092801;28;20222;-62
2023/05/03 07:13:31;;;;;;;0.00;0.00;;;21.80;68.60;;;;;;5092912;28;20639;-62
2023/05/03 07:15:56;;;;;;;0.00;0.00;;;21.60;68.80;;;;;;5092895;28;20179;-62
2023/05/03 07:18:22;;;;;;;0.00;0.00;;;21.70;68.70;;;;;;5092776;28;20230;-61
2023/05/03 07:20:48;;;;;;;0.00;0.00;;;21.70;68.50;;;;;;5092767;28;20172;-62
2023/05/03 07:23:14;;;;;;;0.00;0.00;;;21.80;67.10;;;;;;5091030;28;20220;-59
2023/05/03 07:25:41;;;;;;;0.00;0.00;;;21.50;67.30;;;;;;5092370;28;20573;-59
2023/05/03 07:28:06;;;;;;;0.00;0.00;;;21.40;68.30;;;;;;5092428;28;20262;-59
2023/05/03 07:30:32;;;;;;;0.00;0.00;;;21.30;67.50;;;;;;5092093;28;20663;-59
2023/05/03 07:32:57;;;;;;;0.00;0.00;;;21.20;67.90;;;;;;5092298;28;20271;-59
2023/05/03 07:35:25;;;;;;;0.00;0.00;;;21.30;68.20;;;;;;5091547;28;20164;-59
2023/05/03 07:37:51;;;;;;;0.00;0.00;;;21.20;67.80;;;;;;5071922;28;20234;-59
2023/05/03 07:40:16;;;;;;;0.00;0.00;;;21.60;69.20;;;;;;5071774;28;20189;-59
2023/05/03 07:42:42;;;;;;;0.00;0.00;;;21.90;66.80;;;;;;5078354;28;20164;-61
2023/05/03 07:45:08;;;;;;;0.22;0.15;;;21.90;66.70;;;;;;5092073;28;20647;-61
2023/05/03 07:47:36;;;;;;;0.10;0.00;;;22.10;66.50;;;;;;5091844;28;20659;-61
2023/05/03 07:50:04;;;;;;;0.00;0.00;;;22.30;65.40;;;;;;5091799;28;20183;-61
2023/05/03 07:52:34;;;;;;;0.00;0.00;;;22.30;64.40;;;;;;5092032;28;20240;-61
2023/05/03 07:55:00;;;;;;;0.00;0.00;;;22.10;64.80;;;;;;5091790;28;20635;-60
2023/05/03 07:57:25;;;;;;;0.00;0.00;;;22.10;64.50;;;;;;5092050;28;20179;-61
2023/05/03 07:59:51;;;;;;;0.00;0.00;;;21.90;64.80;;;;;;5091948;28;20369;-61
2023/05/03 08:02:16;;;;;;;0.10;0.10;;;21.80;65.60;;;;;;5091614;28;20576;-61
2023/05/03 08:04:41;;;;;;;0.00;0.00;;;21.90;64.60;;;;;;5091832;28;20180;-61
2023/05/03 08:07:07;;;;;;;0.00;0.00;;;21.90;64.80;;;;;;5091609;28;20176;-60
2023/05/03 08:09:33;;;;;;;0.00;0.00;;;21.90;64.90;;;;;;5091625;28;20239;-61
2023/05/03 08:12:01;;;;;;;0.00;0.00;;;21.70;65.70;;;;;;5091567;28;20250;-61
2023/05/03 08:14:26;;;;;;;0.00;0.00;;;22.00;66.60;;;;;;5091738;28;20601;-61
2023/05/03 08:16:52;;;;;;;0.00;0.00;;;22.30;65.80;;;;;;5091471;28;20172;-61
2023/05/03 08:19:17;;;;;;;0.00;0.00;;;22.40;64.40;;;;;;5090776;28;20234;-61
2023/05/03 08:21:43;;;;;;;0.00;0.00;;;22.40;65.30;;;;;;5091556;28;20204;-60
2023/05/03 08:24:09;;;;;;;0.00;0.00;;;22.60;64.00;;;;;;5091290;28;20720;-61
2023/05/03 08:26:35;;;;;;;0.00;0.00;;;22.60;63.80;;;;;;5091342;28;20225;-61
2023/05/03 08:29:02;;;;;;;0.08;0.08;;;22.70;64.40;;;;;;5091507;28;20175;-61
2023/05/03 08:31:29;;;;;;;0.00;0.00;;;22.70;63.70;;;;;;5091565;28;20318;-60
2023/05/03 08:33:55;;;;;;;0.00;0.00;;;22.60;62.60;;;;;;5091357;28;20223;-61
2023/05/03 08:36:20;;;;;;;0.00;0.00;;;22.40;64.20;;;;;;5082683;28;20208;-60
2023/05/03 08:38:46;;;;;;;0.00;0.00;;;22.40;64.20;;;;;;5071227;28;20184;-60
2023/05/03 08:41:22;;;;;;;0.00;0.00;;;22.50;65.80;;;;;;5070969;28;20647;-60
2023/05/03 08:43:52;;;;;;;0.00;0.00;;;22.60;63.50;;;;;;5071315;28;20211;-61
2023/05/03 08:46:18;;;;;;;0.00;0.00;;;22.30;63.80;;;;;;5071099;28;20192;-61
2023/05/03 08:48:47;;;;;;;0.00;0.00;;;22.20;64.00;;;;;;5071202;28;20180;-60
2023/05/03 08:51:14;;;;;;;0.08;0.08;;;22.30;65.20;;;;;;5070932;28;20325;-60
2023/05/03 08:53:40;;;;;;;0.00;0.00;;;22.50;64.40;;;;;;5071107;28;20636;-61
2023/05/03 08:56:11;;;;;;;0.20;0.20;;;22.80;65.00;;;;;;5070936;28;20187;-61
2023/05/03 08:58:37;;;;;;;0.10;0.10;;;23.00;63.40;;;;;;5071037;28;20176;-60
2023/05/03 09:01:07;;;;;;;0.00;0.00;;;23.20;63.00;;;;;;5070964;28;20187;-61
2023/05/03 09:03:34;;;;;;;0.00;0.00;;;23.00;62.20;;;;;;5070912;28;20187;-61
2023/05/03 09:06:01;;;;;;;0.00;0.00;;;22.80;62.60;;;;;;5070908;28;20172;-60
2023/05/03 09:08:27;;;;;;;0.00;0.00;;;22.80;64.60;;;;;;5070906;28;20238;-60
2023/05/03 09:10:53;;;;;;;0.00;0.00;;;23.00;63.30;;;;;;5069348;28;20683;-60
2023/05/03 09:13:18;;;;;;;0.00;0.00;;;22.70;62.30;;;;;;5070779;28;20181;-60
2023/05/03 09:15:56;;;;;;;0.00;0.00;;;22.40;63.20;;;;;;5070821;28;20173;-60
2023/05/03 09:18:22;;;;;;;0.00;0.00;;;22.10;63.40;;;;;;5070765;28;20183;-61
2023/05/03 09:20:52;;;;;;;0.40;0.40;;;22.20;65.40;;;;;;5070701;28;20192;-61
2023/05/03 09:23:30;;;;;;;0.00;0.00;;;22.40;64.90;;;;;;5069146;28;20741;-60
2023/05/03 09:25:56;;;;;;;0.00;0.00;;;22.40;64.40;;;;;;5070564;28;20192;-60
2023/05/03 09:28:22;;;;;;;0.00;0.00;;;22.50;64.40;;;;;;5070615;28;20173;-60
2023/05/03 09:30:49;;;;;;;0.00;0.00;;;22.80;65.00;;;;;;5072549;28;20548;-60
2023/05/03 09:33:21;;;;;;;0.00;0.00;;;23.10;63.80;;;;;;5074214;28;20169;-60
2023/05/03 09:36:00;;;;;;;0.10;0.10;;;23.50;63.80;;;;;;5074352;28;20204;-60
2023/05/03 09:38:31;;;;;;;0.28;0.28;;;23.90;61.90;;;;;;5074345;28;20531;-60
2023/05/03 09:40:57;;;;;;;0.00;0.00;;;24.00;61.70;;;;;;5074169;28;20175;-60
2023/05/03 09:43:23;;;;;;;0.00;0.00;;;23.70;61.10;;;;;;5086227;28;20690;-60
2023/05/03 09:45:48;;;;;;;0.00;0.00;;;23.70;62.00;;;;;;5094418;28;20180;-61
2023/05/03 09:48:15;;;;;;;0.00;0.00;;;23.80;62.20;;;;;;5094263;28;20263;-61
2023/05/03 09:50:42;;;;;;;0.15;0.15;;;23.80;61.20;;;;;;5094296;28;20219;-60
2023/05/03 09:53:09;;;;;;;0.00;0.00;;;23.70;62.00;;;;;;5094314;28;20254;-61
2023/05/03 09:55:39;;;;;;;0.00;0.00;;;23.70;62.00;;;;;;5094292;28;20179;-61
2023/05/03 09:58:06;;;;;;;0.00;0.00;;;23.70;61.90;;;;;;5094138;28;20623;-61
2023/05/03 10:00:36;;;;;;;0.00;0.00;;;23.50;62.30;;;;;;5093986;28;20643;-61
2023/05/03 10:03:10;;;;;;;0.00;0.00;;;23.60;63.60;;;;;;5094020;28;20523;-61
2023/05/03 10:05:46;;;;;;;0.00;0.00;;;23.80;61.80;;;;;;5094031;28;20176;-61
2023/05/03 10:08:32;;;;;;;0.00;0.00;;;23.40;61.00;;;;;;5093846;28;20241;-61
2023/05/03 10:10:57;;;;;;;0.00;0.00;;;23.10;62.20;;;;;;5093937;28;20218;-61
2023/05/03 10:13:23;;;;;;;0.00;0.00;;;22.80;62.50;;;;;;5093868;28;20172;-60
2023/05/03 10:15:57;;;;;;;0.00;0.00;;;22.50;62.80;;;;;;5094003;28;20656;-60
2023/05/03 10:18:28;;;;;;;0.00;0.00;;;22.30;64.60;;;;;;5093717;28;20305;-61
2023/05/03 10:21:08;;;;;;;0.00;0.00;;;22.20;64.70;;;;;;5093858;28;20176;-61
2023/05/03 10:23:34;;;;;;;0.00;0.00;;;22.30;65.10;;;;;;5093552;28;20224;-61
2023/05/03 10:26:12;;;;;;;0.00;0.00;;;22.30;65.10;;;;;;5092320;28;20180;-61
2023/05/03 10:28:37;;;;;;;0.00;0.00;;;22.40;64.50;;;;;;5093780;28;20180;-61
2023/05/03 10:31:03;;;;;;;0.00;0.00;;;22.60;63.30;;;;;;5093603;28;20212;-60
2023/05/03 10:33:31;;;;;;;0.00;0.00;;;22.40;65.20;;;;;;5093525;28;20257;-61
2023/05/03 10:35:59;;;;;;;0.00;0.00;;;22.50;63.30;;;;;;5093134;28;20202;-60
2023/05/03 10:38:26;;;;;;;0.00;0.00;;;22.30;63.60;;;;;;5093481;28;20176;-61
2023/05/03 10:40:55;;;;;;;0.00;0.00;;;22.10;64.80;;;;;;5093290;28;20180;-61
2023/05/03 10:43:30;;;;;;;0.00;0.00;;;22.10;64.70;;;;;;5104684;28;20206;-60
2023/05/03 10:46:08;;;;;;;0.00;0.00;;;22.20;64.30;;;;;;5113511;28;20207;-61
2023/05/03 10:48:34;;;;;;;0.38;0.20;;;22.20;65.00;;;;;;5112295;28;20179;-61
2023/05/03 10:51:27;;;;;;;0.00;0.00;;;22.40;65.60;;;;;;5113594;28;20704;-61
2023/05/03 10:53:53;;;;;;;0.00;0.00;;;22.80;64.80;;;;;;5113420;28;20717;-60
2023/05/03 10:56:19;;;;;;;0.00;0.00;;;22.80;62.90;;;;;;5095208;28;20271;-60
2023/05/03 10:58:54;;;;;;;0.00;0.00;;;22.80;63.60;;;;;;5113395;28;20171;-61
2023/05/03 11:01:23;;;;;;;0.00;0.00;;;22.70;62.30;;;;;;5113414;28;20214;-61
2023/05/03 11:04:01;;;;;;;0.00;0.00;;;22.40;62.60;;;;;;5113311;28;20708;-61
2023/05/03 11:06:32;;;;;;;0.10;0.10;;;22.40;63.70;;;;;;5113497;28;20190;-61
2023/05/03 11:08:57;;;;;;;0.10;0.10;;;22.30;64.30;;;;;;5113249;28;20642;-60
2023/05/03 11:11:23;;;;;;;0.00;0.00;;;22.10;63.90;;;;;;5113104;28;20215;-60
2023/05/03 11:13:52;;;;;;;0.00;0.00;;;21.90;64.80;;;;;;5113119;28;20168;-61
2023/05/03 11:16:18;;;;;;;0.00;0.00;;;21.90;65.70;;;;;;5113001;28;20176;-61
2023/05/03 11:18:44;;;;;;;0.00;0.00;;;21.80;64.80;;;;;;5113171;28;20160;-61
2023/05/03 11:21:10;;;;;;;0.00;0.00;;;21.70;64.50;;;;;;5112950;28;20180;-61
2023/05/03 11:23:38;;;;;;;0.00;0.00;;;21.70;65.60;;;;;;5112580;28;20701;-61
2023/05/03 11:26:08;;;;;;;0.00;0.00;;;21.80;64.90;;;;;;5112937;28;20216;-61
2023/05/03 11:28:36;;;;;;;0.00;0.00;;;22.00;64.70;;;;;;5112921;28;20176;-61
2023/05/03 11:31:02;;;;;;;0.00;0.00;;;22.10;64.70;;;;;;5112870;28;20220;-61
2023/05/03 11:33:29;;;;;;;0.00;0.00;;;22.10;65.20;;;;;;5111426;28;20175;-61
2023/05/03 11:35:55;;;;;;;0.00;0.00;;;22.20;64.50;;;;;;5107403;28;20212;-61
2023/05/03 11:38:21;;;;;;;0.10;0.10;;;22.10;64.40;;;;;;5092375;28;20180;-61
2023/05/03 11:40:47;;;;;;;0.00;0.00;;;22.00;63.70;;;;;;5092413;28;20183;-61
2023/05/03 11:43:12;;;;;;;0.00;0.00;;;22.10;63.70;;;;;;5102795;28;20172;-61
2023/05/03 11:45:44;;;;;;;0.00;0.00;;;22.20;63.90;;;;;;5112457;28;20183;-61
2023/05/03 11:48:12;;;;;;;0.00;0.00;;;22.30;62.30;;;;;;5112473;28;20176;-61
2023/05/03 11:50:54;;;;;;;0.00;0.00;;;22.40;62.20;;;;;;5112461;28;20289;-61
2023/05/03 11:53:20;;;;;;;0.00;0.00;;;22.30;61.70;;;;;;5111783;28;20172;-61
2023/05/03 11:55:48;;;;;;;0.00;0.00;;;22.30;62.30;;;;;;5112178;28;20163;-61
2023/05/03 11:58:20;;;;;;;0.10;0.10;;;22.20;62.20;;;;;;5112165;27;20634;-61
2023/05/03 12:00:48;;;;;;;0.00;0.00;;;22.00;61.90;;;;;;5112246;28;20176;-61
2023/05/03 12:03:18;;;;;;;0.00;0.00;;;22.00;62.20;;;;;;5112132;28;20258;-61
2023/05/03 12:05:44;;;;;;;0.00;0.00;;;22.00;62.20;;;;;;5112208;28;20194;-61
2023/05/03 12:08:10;;;;;;;0.00;0.00;;;21.90;62.60;;;;;;5112139;28;20187;-61
2023/05/03 12:10:36;;;;;;;0.00;0.00;;;22.10;62.40;;;;;;5111847;28;20211;-61
2023/05/03 12:13:02;;;;;;;0.10;0.10;;;22.30;62.50;;;;;;5112040;28;20183;-61
2023/05/03 12:15:36;;;;;;;0.00;0.00;;;22.40;62.60;;;;;;5112295;28;20267;-61
2023/05/03 12:18:07;;;;;;;0.00;0.00;;;22.50;61.00;;;;;;5110698;28;20867;-61
2023/05/03 12:20:33;;;;;;;0.00;0.00;;;22.20;61.70;;;;;;5111824;28;20630;-61
2023/05/03 12:23:01;;;;;;;0.00;0.00;;;22.30;62.60;;;;;;5111698;28;20682;-61
2023/05/03 12:25:31;;;;;;;0.25;0.15;;;22.50;62.50;;;;;;5111999;28;20180;-61
2023/05/03 12:27:59;;;;;;;0.00;0.00;;;22.50;60.30;;;;;;5111653;28;20183;-61
2023/05/03 12:30:25;;;;;;;0.00;0.00;;;22.10;60.50;;;;;;5111749;28;20293;-61
2023/05/03 12:32:52;;;;;;;0.00;0.00;;;22.10;61.00;;;;;;5111850;28;20645;-61
2023/05/03 12:35:19;;;;;;;0.10;0.10;;;22.20;60.10;;;;;;5111646;28;20659;-61
2023/05/03 12:37:46;;;;;;;0.00;0.00;;;22.00;60.00;;;;;;5071143;28;20176;-61
2023/05/03 12:40:12;;;;;;;0.00;0.00;;;22.00;60.00;;;;;;5071070;28;20184;-61
2023/05/03 12:42:41;;;;;;;0.00;0.00;;;22.10;60.50;;;;;;5083095;28;20515;-61
2023/05/03 12:45:07;;;;;;;0.00;0.00;;;22.30;60.30;;;;;;5111615;28;20170;-61
2023/05/03 12:47:33;;;;;;;0.00;0.00;;;22.30;61.00;;;;;;5111527;28;20168;-60
2023/05/03 12:50:01;;;;;;;0.00;0.00;;;22.30;60.00;;;;;;5111484;28;20172;-61